PAL494 RPMZ-RPMR
Flight info
| Callsign | PAL494 |
|---|---|
| Flight time | N/A |
| Altitude | 29000 |
| Route | COGEL2B COGEL W20 SEBUL SEBUL3P |
| Aircraft | A359/H-SDE2E3GHIJ3J4J5LM1ORWXY/LB1D1 |
Departure
| Time | 2026-04-23 15:16 |
|---|---|
| Airport | Zamboanga International Airport (RPMZ) |
Arrival
| Time | N/A |
|---|---|
| Airport | General Santos International Airport (RPMR) |
| Time | Latitude | Longitude | Altitude | Speed | Heading |
|---|---|---|---|---|---|
| 2026-04-23 14:55 | 6.92066 | 122.06183 | 37 ft | 0 kts | 155° |
| 2026-04-23 15:06 | 6.92068 | 122.06182 | 39 ft | 2 kts | 155° |
| 2026-04-23 15:07 | 6.92083 | 122.06174 | 33 ft | 2 kts | 154° |
| 2026-04-23 15:07 | 6.92098 | 122.06167 | 31 ft | 2 kts | 153° |
| 2026-04-23 15:07 | 6.92113 | 122.06159 | 40 ft | 2 kts | 150° |
| 2026-04-23 15:07 | 6.92127 | 122.06150 | 42 ft | 2 kts | 141° |
| 2026-04-23 15:08 | 6.92138 | 122.06138 | 43 ft | 2 kts | 107° |
| 2026-04-23 15:08 | 6.92139 | 122.06127 | 41 ft | 1 kts | 88° |
| 2026-04-23 15:08 | 6.92139 | 122.06126 | 41 ft | 0 kts | 88° |
| 2026-04-23 15:10 | 6.92139 | 122.06137 | 43 ft | 4 kts | 90° |
| 2026-04-23 15:11 | 6.92138 | 122.06182 | 43 ft | 7 kts | 92° |
| 2026-04-23 15:11 | 6.92139 | 122.06224 | 43 ft | 4 kts | 77° |
| 2026-04-23 15:11 | 6.92167 | 122.06245 | 43 ft | 6 kts | 14° |
| 2026-04-23 15:11 | 6.92211 | 122.06278 | 41 ft | 10 kts | 63° |
| 2026-04-23 15:12 | 6.92215 | 122.06361 | 42 ft | 15 kts | 93° |
| 2026-04-23 15:12 | 6.92208 | 122.06479 | 42 ft | 19 kts | 94° |
| 2026-04-23 15:12 | 6.92199 | 122.06623 | 43 ft | 22 kts | 94° |
| 2026-04-23 15:12 | 6.92188 | 122.06781 | 43 ft | 13 kts | 94° |
| 2026-04-23 15:13 | 6.92188 | 122.06787 | 43 ft | 1 kts | 94° |
| 2026-04-23 15:13 | 6.92187 | 122.06804 | 42 ft | 5 kts | 94° |
| 2026-04-23 15:13 | 6.92184 | 122.06858 | 42 ft | 10 kts | 94° |
| 2026-04-23 15:13 | 6.92178 | 122.06944 | 41 ft | 15 kts | 94° |
| 2026-04-23 15:14 | 6.92176 | 122.07053 | 42 ft | 11 kts | 73° |
| 2026-04-23 15:14 | 6.92182 | 122.07096 | 42 ft | 0 kts | 117° |
| 2026-04-23 15:14 | 6.92180 | 122.07097 | 42 ft | 1 kts | 132° |
| 2026-04-23 15:15 | 6.92174 | 122.07097 | 42 ft | 1 kts | 167° |
| 2026-04-23 15:15 | 6.92168 | 122.07092 | 42 ft | 1 kts | 215° |
| 2026-04-23 15:15 | 6.92167 | 122.07081 | 42 ft | 2 kts | 265° |
| 2026-04-23 15:15 | 6.92172 | 122.06958 | 41 ft | 51 kts | 274° |
| 2026-04-23 15:16 | 6.92216 | 122.06331 | 42 ft | 126 kts | 274° |
| 2026-04-23 15:16 | 6.92290 | 122.05263 | 297 ft | 168 kts | 274° |
| 2026-04-23 15:16 | 6.92355 | 122.04044 | 988 ft | 181 kts | 273° |
| 2026-04-23 15:16 | 6.92399 | 122.02742 | 1728 ft | 185 kts | 270° |
| 2026-04-23 15:17 | 6.92117 | 122.01515 | 2370 ft | 179 kts | 239° |
| 2026-04-23 15:17 | 6.91161 | 122.00777 | 2927 ft | 176 kts | 194° |
| 2026-04-23 15:17 | 6.90024 | 122.00970 | 3435 ft | 169 kts | 141° |
| 2026-04-23 15:17 | 6.89568 | 122.01992 | 3901 ft | 163 kts | 88° |
| 2026-04-23 15:18 | 6.89534 | 122.03171 | 4197 ft | 177 kts | 102° |
| 2026-04-23 15:18 | 6.89307 | 122.03984 | 4368 ft | 189 kts | 107° |
| 2026-04-23 15:18 | 6.89206 | 122.05095 | 4491 ft | 206 kts | 80° |
| 2026-04-23 15:18 | 6.89852 | 122.06433 | 4747 ft | 223 kts | 55° |
| 2026-04-23 15:19 | 6.90770 | 122.07742 | 5098 ft | 236 kts | 57° |
| 2026-04-23 15:19 | 6.91746 | 122.09822 | 5466 ft | 260 kts | 74° |
| 2026-04-23 15:19 | 6.92046 | 122.11644 | 6033 ft | 267 kts | 87° |
| 2026-04-23 15:19 | 6.92005 | 122.12914 | 6450 ft | 270 kts | 96° |
| 2026-04-23 15:20 | 6.91608 | 122.14742 | 7033 ft | 273 kts | 106° |
| 2026-04-23 15:20 | 6.91006 | 122.16573 | 7645 ft | 276 kts | 108° |
| 2026-04-23 15:20 | 6.90383 | 122.18406 | 8266 ft | 279 kts | 108° |
| 2026-04-23 15:20 | 6.89753 | 122.20285 | 8894 ft | 281 kts | 108° |
| 2026-04-23 15:21 | 6.89130 | 122.22159 | 9521 ft | 284 kts | 108° |
| 2026-04-23 15:21 | 6.88513 | 122.24026 | 10098 ft | 287 kts | 108° |
| 2026-04-23 15:21 | 6.87869 | 122.25980 | 10409 ft | 300 kts | 108° |
| 2026-04-23 15:21 | 6.87646 | 122.26657 | 10485 ft | 305 kts | 108° |
| 2026-04-23 15:22 | 6.87409 | 122.27377 | 10561 ft | 310 kts | 108° |
| 2026-04-23 15:22 | 6.86716 | 122.29482 | 10796 ft | 324 kts | 108° |
| 2026-04-23 15:22 | 6.85994 | 122.31675 | 11050 ft | 335 kts | 108° |
| 2026-04-23 15:22 | 6.85251 | 122.33931 | 11318 ft | 345 kts | 108° |
| 2026-04-23 15:23 | 6.84492 | 122.36237 | 11691 ft | 350 kts | 108° |
| 2026-04-23 15:23 | 6.83718 | 122.38587 | 12080 ft | 354 kts | 108° |
| 2026-04-23 15:23 | 6.82940 | 122.40949 | 12471 ft | 358 kts | 108° |
| 2026-04-23 15:23 | 6.82150 | 122.43346 | 12869 ft | 362 kts | 108° |
| 2026-04-23 15:24 | 6.81354 | 122.45762 | 13264 ft | 365 kts | 108° |
| 2026-04-23 15:24 | 6.80595 | 122.48205 | 13669 ft | 368 kts | 105° |
| 2026-04-23 15:24 | 6.79927 | 122.50694 | 14032 ft | 370 kts | 104° |
| 2026-04-23 15:24 | 6.79258 | 122.53202 | 14397 ft | 372 kts | 105° |
| 2026-04-23 15:25 | 6.78579 | 122.55696 | 14764 ft | 374 kts | 105° |
| 2026-04-23 15:25 | 6.77883 | 122.58229 | 15130 ft | 376 kts | 105° |
| 2026-04-23 15:25 | 6.77182 | 122.60768 | 15506 ft | 378 kts | 105° |
| 2026-04-23 15:25 | 6.76475 | 122.63325 | 15873 ft | 380 kts | 105° |
| 2026-04-23 15:26 | 6.75766 | 122.65884 | 16251 ft | 381 kts | 105° |
| 2026-04-23 15:26 | 6.75052 | 122.68459 | 16626 ft | 383 kts | 105° |
| 2026-04-23 15:26 | 6.74333 | 122.71051 | 16988 ft | 385 kts | 105° |
| 2026-04-23 15:26 | 6.73610 | 122.73655 | 17347 ft | 387 kts | 105° |
| 2026-04-23 15:27 | 6.72882 | 122.76279 | 17704 ft | 389 kts | 105° |
| 2026-04-23 15:27 | 6.72152 | 122.78907 | 18061 ft | 391 kts | 105° |